Time;durP1;ratioP1;P1;durP2;ratioP2;P2;SDS_P1;SDS_P2;PMS_P1;PMS_P2;Temp;Humidity;BMP_temperature;BMP_pressure;BME280_temperature;BME280_humidity;BME280_pressure;Samples;Min_cycle;Max_cycle;Signal;HPM_P1;HPM_P2
2022/02/11 00:00:34;;;;;;;16.85;6.32;;;;;;;2.64;100.00;102363.69;5285059;28;20023;-76
2022/02/11 00:08:26;;;;;;;17.70;5.68;;;;;;;2.93;100.00;102348.94;5285329;28;20024;-76
2022/02/11 00:10:56;;;;;;;13.82;5.32;;;;;;;2.88;100.00;102346.53;5285869;28;20561;-76
2022/02/11 00:13:27;;;;;;;21.40;4.88;;;;;;;2.87;100.00;102354.56;5285350;28;20141;-76
2022/02/11 00:15:58;;;;;;;17.52;4.50;;;;;;;2.80;100.00;102346.91;5272410;28;20013;-76
2022/02/11 00:18:29;;;;;;;13.25;4.10;;;;;;;2.67;100.00;102337.88;5283711;28;20382;-76
2022/02/11 00:20:59;;;;;;;15.63;4.20;;;;;;;2.57;100.00;102344.59;5284851;28;20011;-76
2022/02/11 00:23:31;;;;;;;10.45;3.67;;;;;;;2.50;100.00;102343.16;5276202;28;20023;-76
2022/02/11 00:26:03;;;;;;;6.88;3.42;;;;;;;2.42;100.00;102346.22;5284783;28;20023;-76
2022/02/11 00:31:46;;;;;;;9.00;3.42;;;;;;;2.36;100.00;102359.78;5284778;28;20486;-76
2022/02/11 00:34:14;;;;;;;14.05;4.30;;;;;;;2.32;100.00;102361.72;5284579;28;20480;-76
2022/02/11 00:36:56;;;;;;;14.68;4.38;;;;;;;2.28;100.00;102359.28;5266900;28;20058;-76
2022/02/11 00:39:55;;;;;;;8.23;4.28;;;;;;;2.21;100.00;102363.16;5285137;28;20488;-76
2022/02/11 01:02:11;;;;;;;13.10;4.75;;;;;;;2.09;100.00;102348.75;5290877;28;20027;-76
2022/02/11 01:04:44;;;;;;;19.92;5.78;;;;;;;2.01;100.00;102362.38;5290888;28;20111;-78
2022/02/11 01:07:14;;;;;;;14.88;6.10;;;;;;;2.00;100.00;102367.72;5290916;28;20470;-79
2022/02/11 01:09:45;;;;;;;17.23;6.40;;;;;;;1.97;100.00;102367.88;5289793;28;20039;-78
2022/02/11 01:12:16;;;;;;;15.60;6.68;;;;;;;1.98;100.00;102351.06;5288961;28;20056;-77
2022/02/11 01:14:51;;;;;;;14.60;7.32;;;;;;;1.99;100.00;102358.06;5286189;28;20027;-77
2022/02/11 01:17:31;;;;;;;21.75;6.63;;;;;;;2.00;100.00;102359.78;5278582;28;20031;-77
2022/02/11 01:20:11;;;;;;;13.35;6.40;;;;;;;1.97;100.00;102365.22;5288705;28;20028;-76
2022/02/11 01:22:59;;;;;;;16.67;6.15;;;;;;;1.94;100.00;102366.22;5284150;28;20031;-78
2022/02/11 01:28:10;;;;;;;15.93;6.25;;;;;;;1.88;100.00;102366.53;5288620;28;20031;-77
2022/02/11 01:31:00;;;;;;;17.10;5.97;;;;;;;1.83;100.00;102365.88;5288401;28;20024;-77
2022/02/11 01:33:50;;;;;;;18.67;6.65;;;;;;;1.85;100.00;102379.03;5276746;28;20102;-76
2022/02/11 01:50:14;;;;;;;17.90;6.75;;;;;;;1.96;100.00;102387.34;5275810;28;20125;-77
2022/02/11 01:52:54;;;;;;;23.88;6.50;;;;;;;2.06;100.00;102383.31;5287464;28;20019;-77
2022/02/11 01:58:43;;;;;;;19.23;6.03;;;;;;;2.22;100.00;102389.59;5287595;28;20470;-77
2022/02/11 02:01:30;;;;;;;21.63;5.60;;;;;;;2.31;100.00;102391.78;5275146;28;20020;-77
2022/02/11 02:16:22;;;;;;;17.45;4.85;;;;;;;2.59;100.00;102401.84;5266314;28;20034;-78
2022/02/11 02:19:23;;;;;;;14.13;4.57;;;;;;;2.59;100.00;102401.84;5274387;28;20099;-78
2022/02/11 02:27:55;;;;;;;14.05;4.40;;;;;;;2.40;100.00;102410.78;5287564;28;20542;-77
2022/02/11 02:33:51;;;;;;;12.88;3.90;;;;;;;2.32;100.00;102406.75;5286960;28;20027;-77
2022/02/11 02:58:17;;;;;;;18.08;5.15;;;;;;;2.89;100.00;102413.66;5286862;28;20020;-78
2022/02/11 03:34:45;;;;;;;17.90;4.57;;;;;;;3.22;100.00;102451.69;5286122;28;20119;-78
2022/02/11 04:25:34;;;;;;;15.65;3.50;;;;;;;3.17;100.00;102527.97;5291312;28;20024;-78
2022/02/11 04:55:35;;;;;;;15.52;3.72;;;;;;;3.24;100.00;102582.44;5288945;28;20022;-78
2022/02/11 05:00:55;;;;;;;20.10;4.13;;;;;;;3.20;100.00;102593.25;5278243;28;20322;-77
2022/02/11 05:03:25;;;;;;;23.27;6.20;;;;;;;3.20;100.00;102606.53;5289729;28;20104;-77
2022/02/11 05:05:56;;;;;;;24.77;12.57;;;;;;;3.24;100.00;102603.66;5288977;28;20023;-77
2022/02/11 05:08:27;;;;;;;36.63;11.27;;;;;;;3.31;100.00;102607.72;5289240;28;20027;-77
2022/02/11 05:10:58;;;;;;;25.50;9.55;;;;;;;3.33;100.00;102613.81;5289467;28;20127;-77
2022/02/11 05:13:28;;;;;;;26.92;6.53;;;;;;;3.42;100.00;102609.00;5289656;28;20422;-78
2022/02/11 05:15:59;;;;;;;22.30;5.65;;;;;;;3.47;100.00;102612.25;5276307;28;20099;-78
2022/02/11 05:18:29;;;;;;;21.83;6.70;;;;;;;3.44;100.00;102615.06;5290361;28;20118;-79
2022/02/11 05:21:00;;;;;;;27.90;7.07;;;;;;;3.50;100.00;102622.72;5273001;28;20110;-78
2022/02/11 05:23:30;;;;;;;40.13;17.88;;;;;;;3.46;100.00;102622.00;5285288;28;20019;-79
2022/02/11 05:26:01;;;;;;;30.40;11.15;;;;;;;3.45;100.00;102622.94;5272145;28;20023;-78
2022/02/11 05:28:31;;;;;;;24.45;9.75;;;;;;;3.44;100.00;102629.19;5290869;28;20028;-78
2022/02/11 05:31:02;;;;;;;30.98;6.32;;;;;;;3.43;100.00;102627.47;5289208;28;20143;-78
2022/02/11 05:33:32;;;;;;;18.75;6.22;;;;;;;3.37;100.00;102633.94;5288210;28;20025;-78
2022/02/11 05:36:03;;;;;;;60.35;22.27;;;;;;;3.29;100.00;102635.25;5287708;28;20552;-78
2022/02/11 05:38:34;;;;;;;32.50;11.98;;;;;;;3.17;100.00;102638.53;5288383;28;20198;-78
2022/02/11 05:41:04;;;;;;;36.35;14.93;;;;;;;3.11;100.00;102645.84;5287961;28;20027;-78
2022/02/11 05:43:35;;;;;;;46.97;20.70;;;;;;;3.01;100.00;102651.63;5289496;28;20110;-78
2022/02/11 05:46:06;;;;;;;28.15;6.75;;;;;;;2.99;100.00;102656.16;5290532;28;20473;-78
2022/02/11 05:48:39;;;;;;;17.05;4.85;;;;;;;2.97;100.00;102666.84;5290505;28;20028;-78
2022/02/11 05:51:10;;;;;;;19.02;3.70;;;;;;;2.98;100.00;102673.88;5289586;28;20035;-79
2022/02/11 05:53:41;;;;;;;41.75;10.13;;;;;;;3.03;100.00;102678.94;5288913;28;20394;-79
2022/02/11 05:56:11;;;;;;;37.17;11.48;;;;;;;3.06;100.00;102681.44;5288847;28;20024;-78
2022/02/11 05:58:42;;;;;;;24.23;5.93;;;;;;;2.99;100.00;102685.31;5291456;28;20019;-79
2022/02/11 06:01:12;;;;;;;18.38;4.05;;;;;;;3.03;100.00;102689.56;5278064;28;20098;-78
2022/02/11 06:03:42;;;;;;;16.73;6.57;;;;;;;2.97;100.00;102693.38;5289178;28;20085;-76
2022/02/11 06:06:13;;;;;;;35.35;11.82;;;;;;;2.93;100.00;102698.88;5269366;28;20027;-75
2022/02/11 06:08:43;;;;;;;30.10;9.55;;;;;;;2.85;100.00;102700.06;5287474;28;20474;-78
2022/02/11 06:11:14;;;;;;;16.83;4.05;;;;;;;2.89;100.00;102706.09;5287856;28;20030;-76
2022/02/11 06:13:44;;;;;;;18.80;3.85;;;;;;;2.92;100.00;102705.13;5287585;28;20035;-81
2022/02/11 06:16:15;;;;;;;13.93;2.90;;;;;;;2.99;100.00;102703.88;5273998;28;20024;-80
2022/02/11 06:18:45;;;;;;;15.93;2.63;;;;;;;3.12;100.00;102699.75;5288410;28;20020;-80
2022/02/11 06:21:16;;;;;;;22.45;3.35;;;;;;;3.27;100.00;102706.97;5287831;28;20030;-79
2022/02/11 06:23:49;;;;;;;20.00;3.78;;;;;;;3.37;100.00;102713.53;5279354;28;20466;-77
2022/02/11 06:26:19;;;;;;;13.55;2.83;;;;;;;3.45;100.00;102713.16;5287397;28;20507;-77
2022/02/11 06:28:51;;;;;;;21.63;3.75;;;;;;;3.45;100.00;102717.59;5288816;28;20020;-76
2022/02/11 06:31:22;;;;;;;16.52;3.20;;;;;;;3.40;100.00;102716.97;5288091;28;20043;-77
2022/02/11 06:33:52;;;;;;;21.67;3.50;;;;;;;3.30;100.00;102722.72;5287327;28;20071;-77
2022/02/11 06:36:23;;;;;;;26.50;3.65;;;;;;;3.28;100.00;102727.25;5287052;28;20030;-76
2022/02/11 06:38:53;;;;;;;22.15;3.58;;;;;;;3.24;100.00;102730.97;5287783;28;20141;-76
2022/02/11 06:41:24;;;;;;;46.78;14.52;;;;;;;3.20;100.00;102734.69;5287107;28;20058;-76
2022/02/11 06:43:54;;;;;;;18.08;3.92;;;;;;;3.18;100.00;102743.66;5287382;28;20046;-76
2022/02/11 06:46:25;;;;;;;21.88;4.00;;;;;;;3.15;100.00;102744.66;5287110;28;20051;-76
2022/02/11 06:48:55;;;;;;;17.63;3.20;;;;;;;3.13;100.00;102754.50;5286956;28;20024;-76
2022/02/11 06:51:26;;;;;;;22.73;3.45;;;;;;;3.07;100.00;102758.28;5287438;28;20417;-76
2022/02/11 06:53:56;;;;;;;21.42;3.95;;;;;;;3.09;100.00;102763.50;5286727;28;20055;-76
2022/02/11 06:56:26;;;;;;;25.70;3.92;;;;;;;3.13;100.00;102765.09;5286747;28;20027;-76
2022/02/11 06:58:57;;;;;;;17.42;3.53;;;;;;;3.10;100.00;102774.03;5286737;28;20110;-76
2022/02/11 07:01:27;;;;;;;23.83;6.57;;;;;;;3.07;100.00;102779.50;5286824;28;20450;-76
2022/02/11 07:03:58;;;;;;;22.73;3.53;;;;;;;3.03;100.00;102782.38;5286614;28;20015;-77
2022/02/11 07:06:29;;;;;;;29.02;3.67;;;;;;;2.96;100.00;102783.56;5286305;28;20408;-76
2022/02/11 07:08:59;;;;;;;18.95;3.38;;;;;;;3.06;100.00;102799.00;5286553;28;20386;-77
2022/02/11 07:11:30;;;;;;;31.42;3.75;;;;;;;3.17;100.00;102811.78;5286292;28;20035;-77
2022/02/11 07:14:00;;;;;;;20.45;3.58;;;;;;;3.29;100.00;102808.53;5286411;28;20542;-77
2022/02/11 07:16:31;;;;;;;20.92;3.67;;;;;;;3.26;100.00;102816.66;5272532;28;20028;-77
2022/02/11 07:19:01;;;;;;;29.08;4.57;;;;;;;3.20;100.00;102827.53;5286074;28;20114;-77
2022/02/11 07:21:32;;;;;;;57.17;27.75;;;;;;;3.18;100.00;102840.00;5288238;28;20035;-76
2022/02/11 07:24:02;;;;;;;18.85;5.30;;;;;;;3.20;100.00;102842.59;5277867;28;20124;-76
2022/02/11 07:26:33;;;;;;;14.43;3.97;;;;;;;3.18;100.00;102860.38;5286349;28;20100;-76
2022/02/11 07:29:04;;;;;;;28.83;4.93;;;;;;;3.11;100.00;102862.41;5286245;28;20032;-76
2022/02/11 07:31:35;;;;;;;23.10;4.88;;;;;;;3.10;100.00;102868.66;5272501;28;20102;-76
2022/02/11 07:34:05;;;;;;;22.15;4.63;;;;;;;3.13;100.00;102876.50;5285983;28;20505;-76
2022/02/11 07:36:36;;;;;;;25.30;4.53;;;;;;;3.16;100.00;102886.09;5267897;28;20364;-76
2022/02/11 07:39:06;;;;;;;17.70;4.15;;;;;;;3.20;100.00;102885.88;5285727;28;20444;-76
2022/02/11 07:41:37;;;;;;;26.48;7.13;;;;;;;3.31;100.00;102894.25;5286346;28;20024;-78
2022/02/11 07:44:08;;;;;;;28.10;6.88;;;;;;;3.51;100.00;102892.44;5287026;28;20494;-78
2022/02/11 07:46:38;;;;;;;26.52;5.40;;;;;;;3.76;100.00;102895.69;5287851;28;20036;-79
2022/02/11 07:49:08;;;;;;;24.95;5.05;;;;;;;3.95;100.00;102898.34;5271858;28;20071;-78
2022/02/11 07:51:39;;;;;;;26.95;5.57;;;;;;;4.02;100.00;102906.88;5272071;28;20055;-79
2022/02/11 07:54:09;;;;;;;23.48;3.67;;;;;;;4.09;100.00;102909.16;5282495;28;20065;-79
2022/02/11 07:56:40;;;;;;;25.40;4.43;;;;;;;4.15;100.00;102910.66;5268861;28;20058;-79
2022/02/11 07:59:10;;;;;;;32.67;4.15;;;;;;;4.19;100.00;102914.88;5269216;28;20058;-78
2022/02/11 08:01:41;;;;;;;16.90;3.28;;;;;;;4.30;100.00;102923.19;5287553;28;20022;-78
2022/02/11 08:04:11;;;;;;;21.65;4.07;;;;;;;4.43;100.00;102922.59;5287360;28;20031;-79
2022/02/11 08:06:42;;;;;;;17.48;3.28;;;;;;;4.54;100.00;102928.25;5269795;28;20035;-79
2022/02/11 08:09:13;;;;;;;20.10;3.05;;;;;;;4.64;100.00;102930.34;5287966;28;20376;-79
2022/02/11 08:11:44;;;;;;;21.92;4.45;;;;;;;4.79;100.00;102941.16;5267329;28;20626;-78
2022/02/11 08:14:15;;;;;;;28.27;4.15;;;;;;;4.98;100.00;102957.91;5285616;28;20077;-78
2022/02/11 08:16:45;;;;;;;27.08;3.53;;;;;;;5.00;100.00;102963.16;5285756;28;20031;-78
2022/02/11 08:19:18;;;;;;;26.98;6.72;;;;;;;4.90;100.00;102968.06;5285700;28;20434;-78
2022/02/11 08:21:50;;;;;;;14.90;4.90;;;;;;;4.74;100.00;102977.75;5283310;28;20023;-77
2022/02/11 08:24:21;;;;;;;24.73;4.78;;;;;;;4.66;100.00;102988.75;5279376;28;20093;-78
2022/02/11 08:26:51;;;;;;;17.80;3.63;;;;;;;4.65;100.00;102989.72;5285586;28;20023;-77
2022/02/11 08:29:25;;;;;;;23.80;5.10;;;;;;;4.57;100.00;103000.75;5285822;28;20062;-80
2022/02/11 08:31:55;;;;;;;31.85;4.47;;;;;;;4.46;100.00;102996.84;5287125;28;20023;-79
2022/02/11 08:34:26;;;;;;;23.05;4.00;;;;;;;4.37;100.00;102992.88;5266125;28;20038;-79
2022/02/11 08:36:56;;;;;;;20.00;4.40;;;;;;;4.26;100.00;103005.78;5269529;28;20035;-78
2022/02/11 08:39:27;;;;;;;31.23;4.18;;;;;;;4.17;100.00;103023.03;5287079;28;20016;-79
2022/02/11 08:41:57;;;;;;;20.95;4.80;;;;;;;4.10;100.00;103032.22;5287046;28;20019;-79
2022/02/11 08:44:28;;;;;;;31.38;4.30;;;;;;;4.14;100.00;103033.78;5268418;28;20116;-80
2022/02/11 08:46:59;;;;;;;30.98;9.38;;;;;;;4.16;100.00;103037.22;5286656;28;20024;-78
2022/02/11 08:49:30;;;;;;;17.83;4.20;;;;;;;4.38;100.00;103035.31;5287588;28;20024;-79
2022/02/11 08:52:00;;;;;;;19.67;3.72;;;;;;;4.69;100.00;103044.47;5269158;28;20478;-79
2022/02/11 08:54:31;;;;;;;29.92;4.45;;;;;;;4.84;100.00;103037.53;5268442;28;20027;-78
2022/02/11 08:57:01;;;;;;;28.52;5.05;;;;;;;4.92;100.00;103046.88;5287225;28;20382;-79
2022/02/11 08:59:32;;;;;;;26.98;5.28;;;;;;;5.47;100.00;103061.81;5287768;28;20031;-79
2022/02/11 09:02:08;;;;;;;25.15;5.07;;;;;;;6.16;100.00;103053.72;5287052;28;20054;-79
2022/02/11 09:04:40;;;;;;;28.02;4.93;;;;;;;6.79;100.00;103052.03;5268993;28;20019;-79
2022/02/11 09:07:10;;;;;;;21.50;3.50;;;;;;;7.55;100.00;103054.66;5268255;28;20023;-84
2022/02/11 09:09:40;;;;;;;28.63;3.72;;;;;;;8.20;100.00;103057.75;5268584;28;20038;-79
2022/02/11 09:12:11;;;;;;;29.08;3.97;;;;;;;8.54;100.00;103053.81;5288990;28;20030;-79
2022/02/11 09:14:41;;;;;;;26.40;4.15;;;;;;;8.85;100.00;103054.47;5286474;28;20102;-79
2022/02/11 09:17:12;;;;;;;21.75;4.82;;;;;;;9.23;100.00;103074.19;5276620;28;20054;-78
2022/02/11 09:19:42;;;;;;;18.10;3.50;;;;;;;9.47;100.00;103069.00;5288065;28;20028;-78
2022/02/11 09:22:13;;;;;;;19.48;3.80;;;;;;;9.85;100.00;103071.72;5283719;28;20023;-78
2022/02/11 09:24:43;;;;;;;25.80;4.63;;;;;;;9.68;100.00;103076.50;5287549;28;20040;-79
2022/02/11 09:27:14;;;;;;;21.02;3.60;;;;;;;9.32;100.00;103086.97;5288048;28;20012;-78
2022/02/11 09:29:45;;;;;;;21.98;3.80;;;;;;;8.94;100.00;103073.47;5287964;28;20027;-78
2022/02/11 09:32:16;;;;;;;21.15;3.63;;;;;;;9.18;100.00;103080.81;5289368;28;20106;-83
2022/02/11 09:34:46;;;;;;;19.25;3.45;;;;;;;8.67;100.00;103094.00;5272390;28;20024;-78
2022/02/11 09:37:17;;;;;;;29.05;4.88;;;;;;;8.24;100.00;103081.53;5287792;28;20034;-78
2022/02/11 09:39:48;;;;;;;18.70;3.67;;;;;;;7.57;100.00;103099.00;5288075;28;20026;-78
2022/02/11 09:42:20;;;;;;;19.35;3.10;;;;;;;7.19;100.00;103095.97;5287713;28;20024;-78
2022/02/11 09:44:51;;;;;;;18.55;4.43;;;;;;;6.90;100.00;103100.31;5287107;28;20020;-78
2022/02/11 09:47:21;;;;;;;21.65;3.72;;;;;;;6.61;100.00;103107.28;5288369;28;20099;-78
2022/02/11 09:49:52;;;;;;;24.13;4.45;;;;;;;6.35;100.00;103111.38;5288410;28;20106;-78
2022/02/11 09:52:22;;;;;;;25.98;3.70;;;;;;;6.17;100.00;103118.56;5287311;28;20110;-78
2022/02/11 09:55:31;;;;;;;23.40;3.42;;;;;;;6.00;100.00;103119.47;5270005;28;20032;-77
2022/02/11 09:57:44;;;;;;;24.23;5.30;;;;;;;5.92;100.00;103132.31;5275908;28;20027;-78
2022/02/11 10:00:15;;;;;;;22.75;3.90;;;;;;;5.95;100.00;103134.81;5269361;28;20442;-78
2022/02/11 10:03:07;;;;;;;10.82;2.17;;;;;;;6.15;100.00;103123.97;5287131;28;20494;-78
2022/02/11 10:05:37;;;;;;;12.60;4.20;;;;;;;6.13;100.00;103128.53;5286395;28;20092;-77
2022/02/11 10:08:08;;;;;;;25.80;2.90;;;;;;;6.17;100.00;103139.88;5287164;28;20023;-77
2022/02/11 10:10:39;;;;;;;23.45;3.50;;;;;;;6.29;100.00;103152.56;5287594;28;20019;-77
2022/02/11 10:13:13;;;;;;;16.30;4.40;;;;;;;6.38;100.00;103140.56;5287052;28;20501;-78
2022/02/11 10:15:49;;;;;;;22.98;3.30;;;;;;;6.31;100.00;103150.66;5276578;28;20024;-78
2022/02/11 10:18:20;;;;;;;24.50;3.03;;;;;;;6.25;100.00;103150.16;5284680;28;20081;-77
2022/02/11 10:20:56;;;;;;;14.55;3.13;;;;;;;6.80;100.00;103153.31;5286817;28;20515;-77
2022/02/11 10:23:30;;;;;;;12.85;2.60;;;;;;;7.37;100.00;103164.28;5277978;28;20069;-78
2022/02/11 10:26:34;;;;;;;16.53;2.17;;;;;;;7.35;100.00;103165.34;5286369;28;20054;-78
2022/02/11 10:29:04;;;;;;;19.45;2.70;;;;;;;7.11;100.00;103178.28;5269637;28;20050;-78
2022/02/11 10:31:39;;;;;;;14.80;2.60;;;;;;;6.59;100.00;103184.72;5286634;28;20024;-78
2022/02/11 10:34:11;;;;;;;37.08;5.45;;;;;;;5.95;100.00;103210.28;5286561;28;20052;-79
2022/02/11 10:36:45;;;;;;;17.13;3.20;;;;;;;5.51;100.00;103203.63;5287163;28;20053;-78
2022/02/11 10:39:19;;;;;;;16.65;3.17;;;;;;;5.00;100.00;103199.91;5289161;28;20073;-78
2022/02/11 10:41:53;;;;;;;19.67;2.80;;;;;;;4.68;100.00;103227.06;5289495;28;20486;-78
2022/02/11 10:44:27;;;;;;;13.65;2.28;;;;;;;4.65;100.00;103226.34;5287046;28;20054;-80
2022/02/11 10:47:07;;;;;;;20.83;2.88;;;;;;;4.62;100.00;103229.16;5287700;28;20024;-84
2022/02/11 10:49:39;;;;;;;16.83;3.08;;;;;;;4.60;100.00;103233.66;5268732;28;20073;-78
2022/02/11 10:52:33;;;;;;;14.25;2.22;;;;;;;4.61;100.00;103236.25;5268253;28;20426;-78
2022/02/11 10:55:05;;;;;;;20.17;2.37;;;;;;;4.61;100.00;103230.06;5278977;28;20122;-79
2022/02/11 10:57:36;;;;;;;25.30;3.10;;;;;;;4.62;100.00;103238.00;5272783;28;20561;-78
2022/02/11 11:00:07;;;;;;;13.75;2.83;;;;;;;4.66;100.00;103234.25;5286206;28;20024;-78
2022/02/11 11:02:40;;;;;;;20.13;2.40;;;;;;;4.78;100.00;103240.81;5268173;28;20562;-78
2022/02/11 11:05:12;;;;;;;20.83;4.15;;;;;;;4.88;100.00;103249.25;5286222;28;20015;-78
2022/02/11 11:07:43;;;;;;;17.75;2.20;;;;;;;5.00;100.00;103243.34;5286731;28;20027;-79
2022/02/11 11:10:14;;;;;;;26.35;3.15;;;;;;;5.10;100.00;103246.44;5285960;28;20103;-80
2022/02/11 11:12:54;;;;;;;19.92;2.65;;;;;;;5.17;100.00;103246.09;5273893;28;20458;-77
2022/02/11 11:15:26;;;;;;;18.73;3.58;;;;;;;5.27;100.00;103246.50;5265108;28;20051;-78
2022/02/11 11:18:03;;;;;;;23.45;3.08;;;;;;;5.34;100.00;103247.94;5280713;28;20110;-79
2022/02/11 11:20:35;;;;;;;21.95;3.70;;;;;;;5.43;100.00;103246.63;5268768;28;20098;-79
2022/02/11 11:23:20;;;;;;;20.92;2.15;;;;;;;5.78;100.00;103242.22;5276511;28;20022;-79
2022/02/11 11:25:53;;;;;;;18.77;2.55;;;;;;;5.85;100.00;103240.97;5267668;28;20649;-79
2022/02/11 11:29:01;;;;;;;16.65;3.00;;;;;;;5.93;100.00;103236.16;5254884;28;20667;-79
2022/02/11 11:31:32;;;;;;;25.92;2.30;;;;;;;6.16;100.00;103237.63;5268177;28;20042;-78
2022/02/11 11:34:20;;;;;;;21.35;3.72;;;;;;;6.50;100.00;103233.22;5267883;28;20012;-80
2022/02/11 11:36:54;;;;;;;16.25;2.65;;;;;;;6.66;100.00;103242.09;5289373;28;20032;-78
2022/02/11 11:39:25;;;;;;;13.87;3.17;;;;;;;6.78;100.00;103234.38;5289841;28;20027;-78
2022/02/11 11:42:14;;;;;;;23.98;4.25;;;;;;;6.84;100.00;103234.06;5288734;28;20024;-78
2022/02/11 11:45:26;;;;;;;22.13;3.65;;;;;;;7.03;100.00;103240.13;5276774;28;20509;-79
2022/02/11 11:48:12;;;;;;;23.90;4.43;;;;;;;7.21;100.00;103227.53;5272551;28;20645;-79
2022/02/11 11:50:45;;;;;;;28.67;4.65;;;;;;;7.30;100.00;103229.69;5286694;28;20024;-79
2022/02/11 11:53:34;;;;;;;19.02;3.53;;;;;;;7.29;100.00;103229.78;5267734;28;20062;-80
2022/02/11 11:56:35;;;;;;;11.63;2.58;;;;;;;7.29;100.00;103227.97;5272392;28;20132;-79
2022/02/11 11:59:30;;;;;;;10.27;2.05;;;;;;;7.43;100.00;103237.84;5285819;28;20047;-80
2022/02/11 12:02:19;;;;;;;12.98;2.17;;;;;;;7.47;100.00;103229.56;5286981;28;20420;-79
2022/02/11 12:04:53;;;;;;;12.07;1.95;;;;;;;7.55;100.00;103233.63;5286592;28;20390;-79
2022/02/11 12:07:25;;;;;;;11.45;2.08;;;;;;;7.39;100.00;103239.00;5287313;28;20028;-79
2022/02/11 12:09:58;;;;;;;12.02;1.42;;;;;;;7.45;100.00;103242.16;5250172;28;20024;-78
2022/02/11 12:12:31;;;;;;;11.82;1.25;;;;;;;7.44;99.01;103243.13;5287551;28;20080;-78
2022/02/11 12:15:07;;;;;;;14.63;1.75;;;;;;;7.34;93.00;103246.41;5282308;28;20028;-79
2022/02/11 12:17:37;;;;;;;8.07;1.30;;;;;;;7.19;86.51;103245.47;5278914;28;20027;-79
2022/02/11 12:20:08;;;;;;;9.82;1.67;;;;;;;7.31;85.68;103242.09;5287472;28;20027;-79
2022/02/11 12:27:19;;;;;;;8.90;1.55;;;;;;;7.43;89.74;103252.09;5258912;28;20162;-78
2022/02/11 12:28:21;;;;;;;12.75;1.83;;;;;;;7.71;98.32;103254.03;5287131;28;20027;-79
2022/02/11 12:30:52;;;;;;;7.97;1.98;;;;;;;7.75;93.45;103244.03;5268568;28;20486;-80
2022/02/11 12:33:22;;;;;;;5.60;1.80;;;;;;;7.76;90.89;103249.28;5286093;28;20027;-79
2022/02/11 12:36:06;;;;;;;9.98;1.70;;;;;;;7.79;96.77;103253.59;5268030;28;20023;-80
2022/02/11 12:38:37;;;;;;;13.95;2.00;;;;;;;7.87;99.42;103247.78;5287220;28;20072;-81
2022/02/11 12:41:08;;;;;;;14.48;1.75;;;;;;;7.89;100.00;103248.56;5288537;28;20028;-81
2022/02/11 12:43:38;;;;;;;10.60;1.75;;;;;;;7.88;100.00;103253.06;5270426;28;20031;-79
2022/02/11 12:46:11;;;;;;;11.00;1.17;;;;;;;7.89;96.50;103241.41;5293120;28;20062;-81
2022/02/11 12:48:42;;;;;;;8.25;1.77;;;;;;;7.97;100.00;103262.31;5302214;28;20024;-81
2022/02/11 12:51:15;;;;;;;12.85;2.08;;;;;;;8.14;100.00;103258.69;5279179;28;20023;-80
2022/02/11 12:53:46;;;;;;;13.57;1.83;;;;;;;8.36;100.00;103261.78;5273700;28;20053;-80
2022/02/11 12:56:17;;;;;;;10.77;1.55;;;;;;;8.39;95.99;103247.38;5273957;28;20486;-81
2022/02/11 12:59:03;;;;;;;7.68;1.58;;;;;;;8.24;88.51;103255.34;5265333;28;20023;-80
2022/02/11 13:01:34;;;;;;;8.45;1.40;;;;;;;8.37;90.41;103260.84;5277931;28;20020;-79
2022/02/11 13:04:04;;;;;;;6.32;1.17;;;;;;;8.39;88.85;103258.09;5288530;28;20093;-77
2022/02/11 13:06:35;;;;;;;8.88;1.13;;;;;;;8.39;88.07;103263.44;5270082;28;20027;-77
2022/02/11 13:09:06;;;;;;;7.80;1.63;;;;;;;8.32;85.14;103253.06;5288105;28;20020;-77
2022/02/11 13:11:37;;;;;;;8.30;1.45;;;;;;;8.31;84.50;103267.38;5288704;28;20031;-78
2022/02/11 13:14:09;;;;;;;12.45;1.70;;;;;;;8.39;90.22;103258.94;5288896;28;20479;-78
2022/02/11 13:16:40;;;;;;;9.55;1.67;;;;;;;8.47;86.42;103253.97;5274827;28;20027;-77
2022/02/11 13:19:12;;;;;;;10.02;1.73;;;;;;;8.36;93.86;103252.88;5288307;28;20031;-77
2022/02/11 13:21:44;;;;;;;11.02;1.75;;;;;;;8.21;91.17;103254.66;5286612;28;20088;-77
2022/02/11 13:24:15;;;;;;;11.75;1.60;;;;;;;8.02;94.74;103252.22;5282073;28;20015;-78
2022/02/11 13:26:45;;;;;;;7.78;1.80;;;;;;;8.01;91.19;103254.03;5291406;28;20565;-78
2022/02/11 13:29:16;;;;;;;5.93;1.27;;;;;;;7.94;88.49;103258.03;5289412;28;20077;-77
2022/02/11 13:31:49;;;;;;;11.98;1.75;;;;;;;7.98;88.83;103251.56;5287898;28;20547;-77
2022/02/11 13:34:19;;;;;;;10.18;2.35;;;;;;;7.99;93.82;103258.63;5269529;28;20027;-77
2022/02/11 13:36:50;;;;;;;10.65;2.00;;;;;;;8.05;93.68;103258.25;5288163;28;20027;-78
2022/02/11 13:39:37;;;;;;;11.35;1.95;;;;;;;8.09;87.40;103263.44;5288547;28;20479;-77
2022/02/11 13:42:26;;;;;;;14.98;2.17;;;;;;;8.15;93.07;103255.91;5287976;28;20031;-77
2022/02/11 13:45:15;;;;;;;10.93;1.35;;;;;;;8.18;89.99;103255.72;5287458;28;20023;-77
2022/02/11 13:48:00;;;;;;;12.60;2.10;;;;;;;8.22;92.43;103257.22;5269411;28;20398;-77
2022/02/11 13:50:30;;;;;;;8.82;2.42;;;;;;;8.21;92.16;103252.84;5287463;28;20072;-77
2022/02/11 13:53:02;;;;;;;10.20;1.77;;;;;;;8.11;86.42;103253.50;5287303;28;20020;-77
2022/02/11 13:55:33;;;;;;;15.23;1.90;;;;;;;8.15;94.41;103258.56;5286311;28;20181;-77
2022/02/11 13:58:15;;;;;;;17.42;1.83;;;;;;;8.27;91.29;103256.97;5288335;28;20110;-77
2022/02/11 14:00:45;;;;;;;8.32;1.50;;;;;;;8.37;86.43;103255.47;5288310;28;20027;-77
2022/02/11 14:03:35;;;;;;;14.73;2.22;;;;;;;8.41;89.58;103262.38;5288271;28;20049;-77
2022/02/11 14:06:06;;;;;;;11.70;2.15;;;;;;;8.48;91.79;103266.41;5287458;28;20019;-77
2022/02/11 14:09:07;;;;;;;19.55;3.22;;;;;;;8.90;96.47;103269.19;5287813;28;20031;-77
2022/02/11 14:11:40;;;;;;;11.55;1.90;;;;;;;9.11;87.07;103278.53;5285327;28;20073;-77
2022/02/11 14:14:13;;;;;;;16.52;2.28;;;;;;;9.11;84.17;103283.91;5287429;28;20095;-77
2022/02/11 14:16:45;;;;;;;7.10;1.90;;;;;;;9.17;87.35;103286.19;5273653;28;20023;-77
2022/02/11 14:19:17;;;;;;;11.40;2.10;;;;;;;9.34;92.96;103277.94;5287525;28;20015;-77
2022/02/11 14:21:48;;;;;;;11.45;2.17;;;;;;;9.29;100.00;103282.72;5285702;28;20051;-77
2022/02/11 14:24:20;;;;;;;20.27;2.70;;;;;;;9.12;100.00;103292.78;5280590;28;20057;-77
2022/02/11 14:26:52;;;;;;;15.18;1.95;;;;;;;8.90;100.00;103293.28;5269205;28;20047;-77
2022/02/11 14:29:23;;;;;;;21.33;2.47;;;;;;;8.82;100.00;103285.72;5286559;28;20035;-77
2022/02/11 14:31:54;;;;;;;8.98;1.77;;;;;;;8.81;100.00;103286.69;5286860;28;20019;-78
2022/02/11 14:34:24;;;;;;;18.48;2.28;;;;;;;8.63;100.00;103286.00;5286290;28;20050;-78
2022/02/11 14:36:55;;;;;;;7.70;1.98;;;;;;;8.52;100.00;103288.47;5287266;28;20023;-78
2022/02/11 14:39:25;;;;;;;12.52;1.80;;;;;;;8.25;100.00;103286.47;5286431;28;20019;-78
2022/02/11 14:42:00;;;;;;;12.50;1.90;;;;;;;8.03;100.00;103286.91;5286480;28;20552;-78
2022/02/11 14:44:32;;;;;;;20.85;3.00;;;;;;;7.70;100.00;103295.06;5267811;28;20540;-78
2022/02/11 14:47:05;;;;;;;15.07;1.83;;;;;;;7.55;100.00;103287.06;5286298;28;20042;-79
2022/02/11 14:49:38;;;;;;;11.15;1.85;;;;;;;7.41;100.00;103283.34;5286308;28;20019;-79
2022/02/11 14:52:12;;;;;;;12.98;1.50;;;;;;;7.32;100.00;103293.69;5286108;28;20118;-79
2022/02/11 14:54:42;;;;;;;9.48;1.77;;;;;;;7.16;100.00;103285.66;5285873;28;20027;-78
2022/02/11 14:57:14;;;;;;;14.50;2.03;;;;;;;7.09;100.00;103286.97;5267878;28;20239;-79
2022/02/11 14:59:45;;;;;;;17.77;2.50;;;;;;;7.02;100.00;103294.41;5286177;28;20099;-79
2022/02/11 15:02:16;;;;;;;14.95;2.63;;;;;;;6.90;100.00;103292.44;5267834;28;20102;-79
2022/02/11 15:04:46;;;;;;;14.52;1.90;;;;;;;6.88;100.00;103297.00;5286040;28;20069;-77
2022/02/11 15:07:17;;;;;;;11.68;1.80;;;;;;;6.87;100.00;103297.91;5285033;28;20047;-78
2022/02/11 15:09:48;;;;;;;13.40;2.00;;;;;;;6.83;100.00;103305.25;5285986;28;20016;-78
2022/02/11 15:12:19;;;;;;;10.77;1.90;;;;;;;6.80;100.00;103309.88;5286008;28;20375;-78
2022/02/11 15:14:49;;;;;;;13.90;2.17;;;;;;;6.84;100.00;103304.31;5282920;28;20055;-79